createdAt,value
2017-07-20T00:01:45.311Z,5.10
2017-07-20T00:04:14.092Z,6.60
2017-07-20T00:06:42.363Z,5.77
2017-07-20T00:09:10.702Z,6.00
2017-07-20T00:11:39.001Z,6.13
2017-07-20T00:14:08.099Z,5.67
2017-07-20T00:16:36.347Z,6.60
2017-07-20T00:19:04.657Z,6.03
2017-07-20T00:21:33.007Z,8.30
2017-07-20T00:24:01.274Z,5.73
2017-07-20T00:26:29.535Z,5.80
2017-07-20T00:28:57.882Z,5.70
2017-07-20T00:31:26.118Z,6.10
2017-07-20T00:33:54.348Z,6.87
2017-07-20T00:36:22.666Z,6.33
2017-07-20T00:38:50.907Z,6.20
2017-07-20T00:41:19.261Z,6.20
2017-07-20T00:43:47.532Z,6.93
2017-07-20T00:46:15.872Z,5.60
2017-07-20T00:48:44.288Z,6.23
2017-07-20T00:51:12.527Z,6.00
2017-07-20T00:53:40.798Z,7.20
2017-07-20T00:56:09.076Z,6.70
2017-07-20T00:58:37.378Z,6.57
2017-07-20T01:01:05.781Z,5.83
2017-07-20T01:03:34.035Z,5.70
2017-07-20T01:06:02.437Z,6.47
2017-07-20T01:08:30.701Z,5.40
2017-07-20T01:10:59.030Z,6.00
2017-07-20T01:13:27.315Z,6.13
2017-07-20T01:15:55.630Z,6.43
2017-07-20T01:18:23.873Z,5.80
2017-07-20T01:20:52.299Z,6.07
2017-07-20T01:23:20.575Z,5.93
2017-07-20T01:25:49.603Z,5.43
2017-07-20T01:28:17.912Z,6.40
2017-07-20T01:30:46.184Z,6.30
2017-07-20T01:33:14.423Z,6.00
2017-07-20T01:35:42.754Z,5.20
2017-07-20T01:38:10.980Z,6.60
2017-07-20T01:40:39.238Z,6.77
2017-07-20T01:43:07.563Z,6.03
2017-07-20T01:45:35.866Z,6.00
2017-07-20T01:48:05.109Z,6.57
2017-07-20T01:50:33.420Z,5.87
2017-07-20T01:53:01.705Z,5.27
2017-07-20T01:55:29.977Z,6.17
2017-07-20T01:57:58.263Z,5.70
2017-07-20T02:00:26.528Z,5.17
2017-07-20T02:02:54.839Z,5.73
2017-07-20T02:05:23.183Z,5.70
2017-07-20T02:07:51.447Z,6.00
2017-07-20T02:10:19.722Z,6.60
2017-07-20T02:12:48.070Z,6.37
2017-07-20T02:15:16.346Z,6.20
2017-07-20T02:17:44.591Z,6.50
2017-07-20T02:20:12.981Z,5.97
2017-07-20T02:22:41.209Z,6.23
2017-07-20T02:25:09.492Z,6.27
2017-07-20T02:27:37.804Z,6.73
2017-07-20T02:30:06.072Z,6.10
2017-07-20T02:32:34.379Z,5.40
2017-07-20T02:35:02.682Z,5.70
2017-07-20T02:37:30.946Z,8.00
2017-07-20T02:39:59.230Z,9.10
2017-07-20T02:42:27.515Z,7.50
2017-07-20T02:44:55.787Z,6.10
2017-07-20T02:47:25.496Z,6.93
2017-07-20T02:49:55.580Z,7.20
2017-07-20T02:52:28.530Z,6.87
2017-07-20T02:54:56.923Z,6.60
2017-07-20T02:57:25.168Z,6.00
2017-07-20T02:59:53.467Z,5.47
2017-07-20T03:02:21.710Z,7.40
2017-07-20T03:04:49.960Z,6.20
2017-07-20T03:07:18.243Z,6.00
2017-07-20T03:09:46.478Z,6.30
2017-07-20T03:12:14.743Z,6.63
2017-07-20T03:14:43.014Z,6.03
2017-07-20T03:17:11.265Z,7.00
2017-07-20T03:19:39.548Z,6.90
2017-07-20T03:22:19.782Z,6.87
2017-07-20T03:24:48.251Z,6.60
2017-07-20T03:27:16.515Z,6.50
2017-07-20T03:29:44.783Z,7.03
2017-07-20T03:32:13.086Z,6.13
2017-07-20T03:34:41.331Z,7.03
2017-07-20T03:37:09.644Z,6.70
2017-07-20T03:39:38.240Z,8.33
2017-07-20T03:42:07.259Z,7.10
2017-07-20T03:44:35.607Z,6.50
2017-07-20T03:47:03.930Z,7.83
2017-07-20T03:49:32.187Z,6.50
2017-07-20T03:52:00.474Z,7.53
2017-07-20T03:54:28.756Z,6.37
2017-07-20T03:56:57.023Z,7.10
2017-07-20T03:59:25.301Z,8.37
2017-07-20T04:01:53.584Z,6.40
2017-07-20T04:04:21.857Z,7.80
2017-07-20T04:06:50.159Z,7.80
2017-07-20T04:09:18.411Z,7.50
2017-07-20T04:11:46.679Z,7.37
2017-07-20T04:14:14.939Z,7.37
2017-07-20T04:20:04.411Z,9.67
2017-07-20T04:22:32.690Z,10.33
2017-07-20T04:25:01.747Z,11.43
2017-07-20T04:27:30.799Z,11.47
2017-07-20T04:29:59.083Z,13.00
2017-07-20T04:32:27.388Z,11.70
2017-07-20T04:34:55.668Z,12.20
2017-07-20T04:37:23.928Z,12.33
2017-07-20T04:39:52.223Z,16.10
2017-07-20T04:42:20.611Z,13.60
2017-07-20T04:44:48.915Z,12.80
2017-07-20T04:47:17.197Z,10.70
2017-07-20T04:49:45.447Z,7.03
2017-07-20T04:52:13.717Z,7.37
2017-07-20T04:54:42.013Z,6.67
2017-07-20T04:57:10.299Z,6.03
2017-07-20T04:59:38.527Z,5.30
2017-07-20T05:02:06.815Z,4.73
2017-07-20T05:04:35.095Z,4.53
2017-07-20T05:07:03.340Z,4.97
2017-07-20T05:09:31.584Z,4.60
2017-07-20T05:12:00.672Z,5.70
2017-07-20T05:14:30.512Z,4.60
2017-07-20T05:16:58.768Z,3.77
2017-07-20T05:19:27.807Z,3.90
2017-07-20T05:21:56.098Z,4.87
2017-07-20T05:24:24.355Z,2.90
2017-07-20T05:26:52.619Z,2.33
2017-07-20T05:29:20.867Z,2.77
2017-07-20T05:31:49.914Z,3.00
2017-07-20T05:34:18.334Z,4.97
2017-07-20T05:36:46.542Z,3.40
2017-07-20T05:39:14.815Z,6.30
2017-07-20T05:41:43.113Z,3.70
2017-07-20T05:44:11.362Z,4.23
2017-07-20T05:46:39.627Z,4.10
2017-07-20T05:49:08.728Z,3.90
2017-07-20T05:51:36.956Z,3.73
2017-07-20T05:54:05.190Z,3.27
2017-07-20T05:56:33.547Z,4.07
2017-07-20T05:59:02.253Z,2.63
2017-07-20T06:01:30.495Z,3.60
2017-07-20T06:03:58.781Z,4.27
2017-07-20T06:06:27.889Z,3.27
2017-07-20T06:08:56.569Z,3.43
2017-07-20T06:11:25.619Z,3.70
2017-07-20T06:13:53.861Z,4.00
2017-07-20T06:16:22.123Z,3.73
2017-07-20T06:18:50.414Z,3.77
2017-07-20T06:21:18.685Z,4.17
2017-07-20T06:23:46.995Z,4.07
2017-07-20T06:26:15.235Z,4.00
2017-07-20T06:28:43.492Z,4.00
2017-07-20T06:31:12.582Z,3.77
2017-07-20T06:33:40.840Z,4.00
2017-07-20T06:36:09.156Z,3.70
2017-07-20T06:38:38.163Z,4.00
2017-07-20T06:41:06.454Z,3.73
2017-07-20T06:43:34.744Z,4.30
2017-07-20T06:46:02.993Z,3.73
2017-07-20T06:48:31.269Z,3.60
2017-07-20T06:51:00.311Z,4.60
2017-07-20T06:53:28.588Z,4.77
2017-07-20T06:55:56.883Z,4.20
2017-07-20T06:58:25.204Z,3.93
2017-07-20T07:00:53.466Z,4.80
2017-07-20T07:03:21.712Z,4.53
2017-07-20T07:05:50.016Z,3.57
2017-07-20T07:08:18.251Z,4.00
2017-07-20T07:10:46.508Z,3.93
2017-07-20T07:13:15.772Z,5.37
2017-07-20T07:15:44.015Z,4.60
2017-07-20T07:18:12.267Z,4.23
2017-07-20T07:20:40.543Z,4.70
2017-07-20T07:23:08.789Z,6.17
2017-07-20T07:25:37.041Z,6.03
2017-07-20T07:28:05.306Z,5.70
2017-07-20T07:30:33.568Z,5.10
2017-07-20T07:33:01.866Z,4.60
2017-07-20T07:35:30.107Z,6.50
2017-07-20T07:37:58.420Z,6.00
2017-07-20T07:40:26.716Z,6.37
2017-07-20T07:42:54.972Z,5.90
2017-07-20T07:45:23.269Z,5.90
2017-07-20T07:47:51.567Z,6.00
2017-07-20T07:50:19.815Z,5.90
2017-07-20T07:52:48.125Z,5.87
2017-07-20T07:55:16.391Z,5.87
2017-07-20T07:57:44.669Z,6.80
2017-07-20T08:00:12.932Z,6.57
2017-07-20T08:02:41.198Z,6.80
2017-07-20T08:05:10.482Z,6.83
2017-07-20T08:07:39.582Z,5.70
2017-07-20T08:10:07.917Z,6.77
2017-07-20T08:12:36.167Z,6.20
2017-07-20T08:15:04.437Z,7.03
2017-07-20T08:17:32.769Z,7.13
2017-07-20T08:20:01.024Z,6.03
2017-07-20T08:22:29.327Z,6.67
2017-07-20T08:24:58.339Z,6.73
2017-07-20T08:27:26.626Z,7.07
2017-07-20T08:29:54.905Z,6.00
2017-07-20T08:32:23.165Z,6.10
2017-07-20T08:34:51.441Z,5.80
2017-07-20T08:37:19.762Z,5.97
2017-07-20T08:39:48.519Z,5.87
2017-07-20T08:42:16.786Z,6.77
2017-07-20T08:44:45.066Z,6.40
2017-07-20T08:47:13.371Z,6.97
2017-07-20T08:49:41.624Z,6.77
2017-07-20T08:52:09.924Z,7.27
2017-07-20T08:54:38.203Z,6.57
2017-07-20T08:57:06.639Z,6.37
2017-07-20T08:59:35.161Z,8.30
2017-07-20T09:02:03.725Z,8.17
2017-07-20T09:04:37.225Z,6.90
2017-07-20T09:07:06.116Z,7.87
2017-07-20T09:09:34.432Z,7.00
2017-07-20T09:12:03.445Z,7.57
2017-07-20T09:14:31.727Z,7.37
2017-07-20T09:17:00.049Z,7.90
2017-07-20T09:19:28.341Z,9.17
2017-07-20T09:21:58.356Z,9.07
2017-07-20T09:24:28.201Z,7.43
2017-07-20T09:26:58.583Z,7.60
2017-07-20T09:29:26.835Z,6.70
2017-07-20T09:31:55.207Z,8.33
2017-07-20T09:34:24.358Z,6.63
2017-07-20T09:36:52.662Z,7.10
2017-07-20T09:39:20.930Z,7.50
2017-07-20T09:41:49.233Z,7.00
2017-07-20T09:44:17.524Z,7.70
2017-07-20T09:46:45.792Z,7.37
2017-07-20T09:49:14.083Z,7.77
2017-07-20T09:51:42.385Z,7.67
2017-07-20T09:54:13.440Z,6.73
2017-07-20T09:56:41.736Z,7.33
2017-07-20T09:59:12.683Z,7.33
2017-07-20T10:01:41.114Z,7.57
2017-07-20T10:04:09.345Z,7.80
2017-07-20T10:06:37.612Z,9.40
2017-07-20T10:09:05.939Z,10.20
2017-07-20T10:11:34.971Z,8.47
2017-07-20T10:14:03.297Z,7.67
2017-07-20T10:16:32.059Z,7.73
2017-07-20T10:19:00.314Z,8.17
2017-07-20T10:21:29.563Z,8.50
2017-07-20T10:23:57.833Z,8.60
2017-07-20T10:26:26.071Z,8.50
2017-07-20T10:28:54.451Z,9.57
2017-07-20T10:31:22.720Z,9.90
2017-07-20T10:33:51.469Z,7.97
2017-07-20T10:36:19.761Z,8.53
2017-07-20T10:38:48.070Z,8.80
2017-07-20T10:41:17.097Z,8.90
2017-07-20T10:43:45.383Z,9.33
2017-07-20T10:46:13.665Z,10.07
2017-07-20T10:48:41.958Z,9.97
2017-07-20T10:51:20.137Z,9.43
2017-07-20T10:53:48.476Z,9.63
2017-07-20T10:56:18.139Z,9.57
2017-07-20T10:58:46.411Z,9.73
2017-07-20T11:01:14.703Z,9.23
2017-07-20T11:03:42.967Z,10.70
2017-07-20T11:06:12.286Z,9.40
2017-07-20T11:08:40.628Z,10.07
2017-07-20T11:11:08.917Z,10.13
2017-07-20T11:13:37.216Z,11.83
2017-07-20T11:16:05.492Z,8.60
2017-07-20T11:18:33.760Z,9.30
2017-07-20T11:21:02.078Z,8.93
2017-07-20T11:23:30.351Z,8.03
2017-07-20T11:25:58.642Z,8.40
2017-07-20T11:28:26.900Z,8.50
2017-07-20T11:30:55.977Z,7.60
2017-07-20T11:33:24.256Z,7.07
2017-07-20T11:35:52.551Z,8.00
2017-07-20T11:38:20.891Z,8.87
2017-07-20T11:40:49.186Z,7.43
2017-07-20T11:43:19.153Z,6.90
2017-07-20T11:45:47.472Z,8.03
2017-07-20T11:48:16.523Z,6.97
2017-07-20T11:50:44.897Z,6.67
2017-07-20T11:53:13.206Z,6.50
2017-07-20T11:55:41.602Z,6.60
2017-07-20T11:58:09.866Z,6.87
2017-07-20T12:00:38.343Z,6.47
2017-07-20T12:03:06.691Z,5.93
2017-07-20T12:05:34.980Z,6.30
2017-07-20T12:08:03.297Z,6.47
2017-07-20T12:10:31.551Z,6.23
2017-07-20T12:12:59.860Z,6.10
2017-07-20T12:15:28.199Z,6.60
2017-07-20T12:17:56.442Z,6.80
2017-07-20T12:20:24.765Z,6.10
2017-07-20T12:22:53.069Z,6.27
2017-07-20T12:25:22.123Z,6.20
2017-07-20T12:27:50.494Z,5.33
2017-07-20T12:30:18.809Z,5.20
2017-07-20T12:32:47.216Z,5.00
2017-07-20T12:35:15.522Z,4.00
2017-07-20T12:37:43.852Z,3.97
2017-07-20T12:40:12.124Z,4.00
2017-07-20T12:42:40.400Z,3.57
2017-07-20T12:45:08.699Z,3.40
2017-07-20T12:47:36.975Z,2.50
2017-07-20T12:50:05.286Z,3.00
2017-07-20T12:52:33.640Z,2.40
2017-07-20T12:55:01.934Z,2.93
2017-07-20T12:57:30.221Z,2.00
2017-07-20T12:59:58.508Z,2.30
2017-07-20T13:02:26.771Z,2.27
2017-07-20T13:04:55.115Z,2.00
2017-07-20T13:07:23.404Z,2.13
2017-07-20T13:09:51.703Z,2.03
2017-07-20T13:12:19.966Z,2.00
2017-07-20T13:14:48.353Z,1.63
2017-07-20T13:17:16.617Z,1.73
2017-07-20T13:19:44.886Z,1.67
2017-07-20T13:22:14.122Z,2.00
2017-07-20T13:24:42.402Z,1.53
2017-07-20T13:27:10.877Z,1.60
2017-07-20T13:29:39.221Z,1.70
2017-07-20T13:32:08.332Z,1.70
2017-07-20T13:34:36.653Z,1.40
2017-07-20T13:37:04.971Z,2.30
2017-07-20T13:39:33.294Z,1.63
2017-07-20T13:42:02.368Z,2.10
2017-07-20T13:44:30.739Z,1.73
2017-07-20T13:46:59.018Z,1.83
2017-07-20T13:49:27.300Z,1.70
2017-07-20T13:51:55.679Z,1.70
2017-07-20T13:54:23.941Z,2.23
2017-07-20T13:56:52.217Z,2.07
2017-07-20T13:59:20.567Z,2.17
2017-07-20T14:01:48.826Z,1.80
2017-07-20T14:04:17.133Z,2.13
2017-07-20T14:06:45.510Z,1.77
2017-07-20T14:09:14.541Z,2.63
2017-07-20T14:11:42.859Z,1.90
2017-07-20T14:14:11.236Z,1.60
2017-07-20T14:16:39.568Z,1.67
2017-07-20T14:19:08.702Z,1.73
2017-07-20T14:21:37.034Z,1.93
2017-07-20T14:24:05.321Z,1.83
2017-07-20T14:26:33.666Z,1.67
2017-07-20T14:29:02.716Z,1.37
2017-07-20T14:31:31.014Z,1.63
2017-07-20T14:33:59.383Z,2.00
2017-07-20T14:36:27.699Z,1.70
2017-07-20T14:38:55.979Z,1.70
2017-07-20T14:41:24.343Z,1.83
2017-07-20T14:43:52.643Z,1.63
2017-07-20T14:46:20.925Z,2.03
2017-07-20T14:48:49.206Z,1.40
2017-07-20T14:51:17.532Z,1.90
2017-07-20T14:53:45.807Z,1.70
2017-07-20T14:56:14.913Z,1.73
2017-07-20T14:58:44.045Z,2.03
2017-07-20T15:01:12.315Z,1.90
2017-07-20T15:03:40.621Z,1.83
2017-07-20T15:06:10.078Z,1.80
2017-07-20T15:08:39.165Z,1.77
2017-07-20T15:11:07.982Z,1.60
2017-07-20T15:13:36.586Z,1.53
2017-07-20T15:16:06.354Z,2.27
2017-07-20T15:18:35.361Z,1.93
2017-07-20T15:21:04.281Z,1.90
2017-07-20T15:23:33.289Z,1.70
2017-07-20T15:26:01.603Z,2.00
2017-07-20T15:28:29.958Z,1.63
2017-07-20T15:30:58.299Z,2.07
2017-07-20T15:33:26.569Z,2.27
2017-07-20T15:35:54.865Z,1.70
2017-07-20T15:38:23.182Z,2.27
2017-07-20T15:40:51.479Z,1.77
2017-07-20T15:43:19.765Z,2.53
2017-07-20T15:45:49.032Z,2.20
2017-07-20T15:48:17.309Z,2.10
2017-07-20T15:50:45.609Z,2.20
2017-07-20T15:53:13.921Z,2.50
2017-07-20T15:55:42.270Z,2.13
2017-07-20T15:58:11.299Z,2.10
2017-07-20T16:00:39.679Z,1.50
2017-07-20T16:03:08.048Z,1.90
2017-07-20T16:05:36.419Z,1.93
2017-07-20T16:08:04.678Z,2.00
2017-07-20T16:10:32.961Z,1.73
2017-07-20T16:13:01.293Z,1.87
2017-07-20T16:15:29.572Z,2.20
2017-07-20T16:17:57.885Z,1.97
2017-07-20T16:20:26.172Z,1.80
2017-07-20T16:22:54.482Z,2.20
2017-07-20T16:25:22.761Z,1.67
2017-07-20T16:27:51.089Z,2.80
2017-07-20T16:30:19.392Z,2.00
2017-07-20T16:32:47.671Z,2.50
2017-07-20T16:35:15.943Z,1.80
2017-07-20T16:37:44.578Z,1.90
2017-07-20T16:40:12.863Z,1.50
2017-07-20T16:42:41.151Z,2.00
2017-07-20T16:45:09.500Z,1.70
2017-07-20T16:47:37.777Z,2.20
2017-07-20T16:50:06.087Z,1.43
2017-07-20T16:52:34.505Z,2.33
2017-07-20T16:55:02.826Z,1.90
2017-07-20T16:57:31.090Z,2.10
2017-07-20T16:59:59.366Z,2.10
2017-07-20T17:05:28.852Z,1.50
2017-07-20T17:07:57.207Z,1.53
2017-07-20T17:10:25.511Z,1.97
2017-07-20T17:12:53.796Z,1.53
2017-07-20T17:15:22.119Z,2.40
2017-07-20T17:17:51.166Z,1.70
2017-07-20T17:20:19.571Z,1.77
2017-07-20T17:22:47.869Z,2.00
2017-07-20T17:25:16.335Z,1.70
2017-07-20T17:27:44.679Z,1.77
2017-07-20T17:30:12.974Z,1.87
2017-07-20T17:32:41.237Z,2.07
2017-07-20T17:35:09.568Z,1.80
2017-07-20T17:37:37.937Z,1.80
2017-07-20T17:40:06.607Z,1.57
2017-07-20T17:42:34.913Z,1.80
2017-07-20T17:45:04.025Z,1.80
2017-07-20T17:47:32.308Z,2.10
2017-07-20T17:50:00.736Z,1.80
2017-07-20T17:52:29.040Z,2.30
2017-07-20T17:54:58.200Z,1.83
2017-07-20T17:57:26.572Z,2.50
2017-07-20T17:59:54.879Z,2.10
2017-07-20T18:02:23.221Z,1.90
2017-07-20T18:04:51.525Z,2.10
2017-07-20T18:07:19.858Z,4.23
2017-07-20T18:09:51.713Z,2.00
2017-07-20T18:12:20.044Z,2.10
2017-07-20T18:14:48.324Z,2.10
2017-07-20T18:17:17.448Z,1.90
2017-07-20T18:19:46.201Z,2.33
2017-07-20T18:22:14.522Z,2.60
2017-07-20T18:24:42.929Z,1.60
2017-07-20T18:27:11.233Z,2.60
2017-07-20T18:29:40.361Z,1.80
2017-07-20T18:32:08.710Z,2.30
2017-07-20T18:34:37.223Z,2.00
2017-07-20T18:37:05.583Z,1.93
2017-07-20T18:39:34.076Z,2.07
2017-07-20T18:42:02.427Z,2.20
2017-07-20T18:44:32.177Z,1.80
2017-07-20T18:47:00.544Z,1.70
2017-07-20T18:49:28.855Z,2.57
2017-07-20T18:51:57.192Z,1.77
2017-07-20T18:54:25.897Z,1.90
2017-07-20T18:56:54.174Z,1.80
2017-07-20T18:59:22.498Z,2.13
2017-07-20T19:01:50.886Z,1.93
2017-07-20T19:04:19.233Z,1.80
2017-07-20T19:06:47.560Z,1.80
2017-07-20T19:09:15.931Z,2.00
2017-07-20T19:11:44.428Z,1.87
2017-07-20T19:14:13.506Z,1.60
2017-07-20T19:16:42.046Z,1.60
2017-07-20T19:19:10.567Z,0.90
2017-07-20T19:21:38.857Z,1.00
2017-07-20T19:24:07.211Z,0.80
2017-07-20T19:26:35.617Z,0.90
2017-07-20T19:29:03.965Z,1.03
2017-07-20T19:31:33.871Z,1.03
2017-07-20T19:34:02.233Z,1.13
2017-07-20T19:36:30.562Z,1.00
2017-07-20T19:38:59.651Z,1.13
2017-07-20T19:41:28.000Z,0.73
2017-07-20T19:43:56.287Z,1.07
2017-07-20T19:46:24.606Z,1.30
2017-07-20T19:48:53.988Z,1.57
2017-07-20T19:51:22.361Z,0.90
2017-07-20T19:53:50.759Z,1.03
2017-07-20T19:56:19.422Z,1.20
2017-07-20T19:58:48.812Z,1.50
2017-07-20T20:01:18.335Z,1.20
2017-07-20T20:03:46.764Z,0.93
2017-07-20T20:06:15.204Z,0.83
2017-07-20T20:08:45.100Z,0.90
2017-07-20T20:11:13.599Z,1.00
2017-07-20T20:13:42.894Z,0.90
2017-07-20T20:16:11.308Z,1.03
2017-07-20T20:18:39.605Z,0.80
2017-07-20T20:21:08.680Z,1.00
2017-07-20T20:23:37.160Z,1.20
2017-07-20T20:26:05.917Z,1.27
2017-07-20T20:28:34.712Z,1.33
2017-07-20T20:31:03.105Z,1.00
2017-07-20T20:33:31.585Z,1.70
2017-07-20T20:36:00.732Z,1.00
2017-07-20T20:38:29.259Z,0.90
2017-07-20T20:40:57.626Z,1.00
2017-07-20T20:43:25.943Z,1.13
2017-07-20T20:45:54.264Z,1.00
2017-07-20T20:48:22.864Z,1.20
2017-07-20T20:50:51.158Z,1.10
2017-07-20T20:53:19.494Z,1.20
2017-07-20T20:55:47.836Z,1.30
2017-07-20T20:58:16.224Z,1.03
2017-07-20T21:00:44.620Z,1.03
2017-07-20T21:03:13.022Z,1.47
2017-07-20T21:05:41.356Z,1.00
2017-07-20T21:08:09.689Z,1.50
2017-07-20T21:10:38.070Z,1.40
2017-07-20T21:13:06.565Z,1.80
2017-07-20T21:15:35.018Z,1.50
2017-07-20T21:18:03.310Z,6.20
2017-07-20T21:20:31.671Z,1.10
2017-07-20T21:23:00.013Z,1.80
2017-07-20T21:25:28.314Z,1.50
2017-07-20T21:27:58.948Z,1.90
2017-07-20T21:30:30.183Z,1.57
2017-07-20T21:32:59.628Z,1.20
2017-07-20T21:35:29.503Z,1.60
2017-07-20T21:38:00.624Z,1.60
2017-07-20T21:40:38.442Z,2.27
2017-07-20T21:43:10.270Z,2.00
2017-07-20T21:45:40.147Z,1.90
2017-07-20T21:48:08.481Z,1.63
2017-07-20T21:50:37.542Z,1.97
2017-07-20T21:53:05.917Z,2.07
2017-07-20T21:55:34.235Z,2.47
2017-07-20T21:58:02.525Z,2.00
2017-07-20T22:00:31.653Z,2.10
2017-07-20T22:03:00.006Z,2.00
2017-07-20T22:05:28.275Z,1.80
2017-07-20T22:07:56.600Z,1.90
2017-07-20T22:10:24.891Z,1.80
2017-07-20T22:12:53.172Z,2.30
2017-07-20T22:15:21.506Z,2.10
2017-07-20T22:17:49.801Z,1.90
2017-07-20T22:20:18.298Z,2.00
2017-07-20T22:22:46.554Z,1.80
2017-07-20T22:25:14.858Z,2.00
2017-07-20T22:27:43.223Z,1.80
2017-07-20T22:30:11.503Z,1.80
2017-07-20T22:32:39.781Z,2.20
2017-07-20T22:35:08.078Z,2.00
2017-07-20T22:37:36.343Z,2.00
2017-07-20T22:40:05.393Z,1.90
2017-07-20T22:42:34.629Z,2.40
2017-07-20T22:45:03.313Z,2.40
2017-07-20T22:47:31.798Z,1.80
2017-07-20T22:50:00.051Z,4.20
2017-07-20T22:52:28.330Z,2.23
2017-07-20T22:54:56.590Z,2.03
2017-07-20T22:57:24.865Z,2.17
2017-07-20T22:59:53.139Z,2.57
2017-07-20T23:02:21.560Z,2.53
2017-07-20T23:04:49.866Z,1.93
2017-07-20T23:07:18.208Z,3.60
2017-07-20T23:09:46.485Z,1.70
2017-07-20T23:12:14.829Z,1.60
2017-07-20T23:14:43.188Z,2.00
2017-07-20T23:17:11.457Z,2.23
2017-07-20T23:19:39.711Z,2.10
2017-07-20T23:22:08.031Z,2.70
2017-07-20T23:24:37.106Z,2.03
2017-07-20T23:27:05.373Z,2.33
2017-07-20T23:29:33.753Z,2.43
2017-07-20T23:32:02.017Z,2.73
2017-07-20T23:34:31.015Z,2.30
2017-07-20T23:36:59.344Z,2.17
2017-07-20T23:39:27.616Z,2.93
2017-07-20T23:41:55.889Z,2.00
2017-07-20T23:44:24.181Z,2.33
2017-07-20T23:46:52.571Z,1.80
2017-07-20T23:49:20.829Z,2.37
2017-07-20T23:51:49.139Z,2.17
2017-07-20T23:54:17.824Z,2.10
2017-07-20T23:56:46.106Z,2.27
2017-07-20T23:59:14.465Z,3.27
